Time;durP1;ratioP1;P1;durP2;ratioP2;P2;SDS_P1;SDS_P2;PMS_P1;PMS_P2;Temp;Humidity;BMP_temperature;BMP_pressure;BME280_temperature;BME280_humidity;BME280_pressure;Samples;Min_cycle;Max_cycle;Signal;HPM_P1;HPM_P2
2021/08/28 00:00:51;;;;;;;5.13;3.83;;;13.70;99.90;;;;;;4992390;28;20206;-68
2021/08/28 00:03:19;;;;;;;4.57;4.10;;;13.50;99.90;;;;;;4979348;28;20217;-69
2021/08/28 00:05:47;;;;;;;5.55;4.38;;;13.50;99.90;;;;;;4992121;28;20281;-68
2021/08/28 00:08:15;;;;;;;5.25;3.75;;;13.50;99.90;;;;;;4979543;28;20520;-68
2021/08/28 00:10:42;;;;;;;4.40;4.00;;;13.20;99.90;;;;;;4986802;28;20209;-68
2021/08/28 00:13:10;;;;;;;3.60;3.28;;;13.20;99.90;;;;;;4992056;28;20435;-68
2021/08/28 00:15:37;;;;;;;4.60;3.70;;;13.20;99.90;;;;;;4984563;28;20317;-68
2021/08/28 00:18:04;;;;;;;4.82;4.43;;;13.20;99.90;;;;;;4987124;28;20268;-68
2021/08/28 00:20:33;;;;;;;7.57;4.85;;;13.20;99.90;;;;;;4979931;28;20520;-68
2021/08/28 00:23:07;;;;;;;4.95;4.43;;;13.30;99.90;;;;;;4981023;28;20240;-68
2021/08/28 00:25:35;;;;;;;7.50;4.40;;;13.30;99.90;;;;;;4980422;28;20258;-68
2021/08/28 00:28:03;;;;;;;6.82;4.80;;;13.30;99.90;;;;;;4978803;28;20202;-68
2021/08/28 00:30:31;;;;;;;6.22;5.50;;;13.40;99.90;;;;;;4979799;28;20255;-68
2021/08/28 00:33:08;;;;;;;6.78;5.97;;;13.40;99.90;;;;;;4979322;28;20211;-69
2021/08/28 00:35:35;;;;;;;5.20;4.63;;;13.40;99.90;;;;;;4979111;28;20436;-68
2021/08/28 00:38:02;;;;;;;5.28;4.78;;;13.50;99.90;;;;;;4979034;28;20556;-69
2021/08/28 00:40:31;;;;;;;9.82;5.93;;;13.70;99.90;;;;;;4979089;28;20244;-68
2021/08/28 00:42:58;;;;;;;6.05;4.40;;;13.70;99.90;;;;;;4979252;28;20206;-68
2021/08/28 00:45:26;;;;;;;4.65;4.25;;;13.80;99.90;;;;;;4979155;28;20202;-68
2021/08/28 00:48:08;;;;;;;6.95;4.93;;;13.80;99.90;;;;;;4978564;28;20260;-68
2021/08/28 00:50:36;;;;;;;9.05;5.68;;;13.90;99.90;;;;;;4985491;28;20225;-68
2021/08/28 00:53:05;;;;;;;7.50;4.22;;;13.90;99.90;;;;;;4983390;28;20370;-68
2021/08/28 00:55:36;;;;;;;8.25;6.80;;;13.90;99.90;;;;;;4991925;28;20205;-68
2021/08/28 00:58:07;;;;;;;7.30;5.60;;;13.80;99.90;;;;;;4991073;28;20500;-68
2021/08/28 01:00:48;;;;;;;6.70;5.30;;;13.80;99.90;;;;;;4980279;28;20420;-67
2021/08/28 01:03:23;;;;;;;6.57;5.07;;;13.80;99.90;;;;;;4978397;28;20228;-69
2021/08/28 01:06:00;;;;;;;9.70;5.60;;;13.70;99.90;;;;;;4978438;28;20306;-68
2021/08/28 01:08:39;;;;;;;6.15;5.55;;;13.70;99.90;;;;;;4997846;28;20263;-67
2021/08/28 01:11:09;;;;;;;5.53;4.65;;;13.70;99.90;;;;;;4997910;28;20342;-68
2021/08/28 01:13:39;;;;;;;5.00;4.50;;;13.70;99.90;;;;;;4997524;28;20244;-68
2021/08/28 01:16:07;;;;;;;6.68;4.60;;;13.60;99.90;;;;;;4996794;28;20252;-68
2021/08/28 01:18:36;;;;;;;5.70;4.78;;;13.60;99.90;;;;;;4986230;28;20203;-68
2021/08/28 01:21:07;;;;;;;6.20;5.30;;;13.60;99.90;;;;;;4978459;28;20202;-68
2021/08/28 01:23:36;;;;;;;6.65;5.22;;;13.60;99.90;;;;;;4978228;28;20428;-68
2021/08/28 01:26:07;;;;;;;7.05;6.22;;;13.60;99.90;;;;;;4977647;28;20201;-68
2021/08/28 01:28:44;;;;;;;7.57;6.18;;;13.60;99.90;;;;;;4980030;28;20440;-69
2021/08/28 01:31:11;;;;;;;6.10;5.50;;;13.70;99.90;;;;;;4979260;28;20292;-68
2021/08/28 01:33:41;;;;;;;10.18;5.93;;;13.70;99.90;;;;;;4989361;28;20274;-69
2021/08/28 01:36:11;;;;;;;5.47;4.97;;;13.70;99.90;;;;;;4982948;28;20532;-68
2021/08/28 01:38:39;;;;;;;5.70;5.10;;;13.70;99.90;;;;;;4997293;28;20208;-68
2021/08/28 01:41:06;;;;;;;9.73;6.22;;;13.80;99.90;;;;;;4981769;28;20254;-68
2021/08/28 01:43:33;;;;;;;7.57;5.30;;;13.80;99.90;;;;;;4976341;28;20206;-68
2021/08/28 01:46:01;;;;;;;7.00;6.30;;;13.90;99.90;;;;;;4990788;28;20560;-67
2021/08/28 01:48:29;;;;;;;12.70;6.22;;;13.90;99.90;;;;;;4977484;28;20202;-68
2021/08/28 01:50:57;;;;;;;7.30;6.60;;;14.00;99.90;;;;;;4987970;28;20259;-67
2021/08/28 01:53:24;;;;;;;9.63;7.90;;;14.00;99.90;;;;;;4982610;28;20204;-67
2021/08/28 01:55:51;;;;;;;6.45;5.80;;;14.00;99.90;;;;;;4997173;28;20416;-68
2021/08/28 01:58:18;;;;;;;6.88;5.70;;;14.00;99.90;;;;;;4994047;28;20213;-69
2021/08/28 02:00:45;;;;;;;7.88;6.43;;;13.70;99.90;;;;;;4986231;28;20320;-68
2021/08/28 02:03:12;;;;;;;7.15;5.25;;;13.90;99.90;;;;;;4996176;28;20259;-68
2021/08/28 02:05:43;;;;;;;6.80;5.22;;;14.00;99.90;;;;;;4995712;28;20236;-68
2021/08/28 02:08:27;;;;;;;6.80;6.18;;;14.00;99.90;;;;;;4997440;28;20272;-69
2021/08/28 02:11:17;;;;;;;6.72;5.82;;;14.00;99.90;;;;;;4989603;28;20194;-68
2021/08/28 02:13:54;;;;;;;7.60;5.95;;;14.10;99.90;;;;;;4985255;28;20240;-67
2021/08/28 02:16:25;;;;;;;6.80;6.03;;;14.10;99.90;;;;;;4986576;28;20213;-69
2021/08/28 02:18:59;;;;;;;8.65;7.50;;;14.10;99.90;;;;;;4993226;28;21701;-68
2021/08/28 02:21:30;;;;;;;6.88;5.60;;;14.00;99.90;;;;;;4986910;28;20253;-68
2021/08/28 02:24:06;;;;;;;7.05;6.28;;;14.00;99.90;;;;;;4978746;28;20206;-69
2021/08/28 02:26:40;;;;;;;6.35;5.43;;;14.00;99.90;;;;;;4996076;28;20209;-69
2021/08/28 02:29:16;;;;;;;7.45;5.28;;;14.00;99.90;;;;;;4995238;28;20205;-68
2021/08/28 02:31:47;;;;;;;6.95;5.55;;;14.00;99.90;;;;;;4996020;28;20247;-68
2021/08/28 02:34:18;;;;;;;8.07;6.03;;;13.80;99.90;;;;;;4995018;28;20270;-68
2021/08/28 02:36:45;;;;;;;7.47;6.78;;;13.30;99.90;;;;;;4986577;28;20234;-68
2021/08/28 02:39:16;;;;;;;6.97;6.28;;;12.80;99.90;;;;;;4991253;28;20454;-68
2021/08/28 02:41:45;;;;;;;7.15;6.45;;;12.60;99.90;;;;;;4995925;28;20400;-68
2021/08/28 02:44:14;;;;;;;7.45;6.75;;;12.80;99.90;;;;;;4992797;28;20506;-68
2021/08/28 02:46:42;;;;;;;8.38;6.38;;;13.00;99.90;;;;;;4975749;28;20209;-68
2021/08/28 02:49:11;;;;;;;9.05;7.07;;;13.20;99.90;;;;;;4976704;28;20206;-68
2021/08/28 02:51:39;;;;;;;8.15;6.45;;;13.30;99.90;;;;;;4976850;28;20264;-68
2021/08/28 02:54:12;;;;;;;9.60;6.43;;;13.30;99.90;;;;;;4988998;28;20205;-68
2021/08/28 02:56:41;;;;;;;8.35;6.88;;;13.20;99.90;;;;;;4989662;28;20294;-68
2021/08/28 02:59:09;;;;;;;9.60;7.47;;;13.10;99.90;;;;;;4988115;28;20201;-67
2021/08/28 03:01:38;;;;;;;9.07;7.13;;;12.70;99.90;;;;;;4990854;28;20408;-68
2021/08/28 03:04:06;;;;;;;8.85;6.93;;;12.80;99.90;;;;;;4987258;28;20215;-69
2021/08/28 03:06:33;;;;;;;9.32;7.10;;;12.30;99.90;;;;;;4994907;28;20335;-69
2021/08/28 03:09:01;;;;;;;8.95;7.53;;;12.30;99.90;;;;;;4985162;28;20201;-69
2021/08/28 03:11:28;;;;;;;8.45;7.22;;;12.10;99.90;;;;;;4988143;28;20208;-68
2021/08/28 03:13:55;;;;;;;7.63;6.93;;;12.10;99.90;;;;;;4983799;28;20280;-67
2021/08/28 03:16:26;;;;;;;10.80;7.60;;;12.30;99.90;;;;;;4979420;28;20237;-67
2021/08/28 03:18:56;;;;;;;8.15;6.82;;;12.50;99.90;;;;;;4988788;28;20376;-68
2021/08/28 03:21:25;;;;;;;8.43;7.53;;;12.40;99.90;;;;;;4980194;28;20233;-67
2021/08/28 03:23:56;;;;;;;10.60;7.50;;;12.40;99.90;;;;;;4989135;28;20204;-67
2021/08/28 03:26:43;;;;;;;10.85;8.48;;;12.30;99.90;;;;;;4986299;28;20499;-68
2021/08/28 03:29:12;;;;;;;9.75;8.15;;;12.50;99.90;;;;;;4990762;28;20280;-69
2021/08/28 03:31:39;;;;;;;13.52;7.93;;;12.50;99.90;;;;;;4997945;28;20200;-68
2021/08/28 03:34:08;;;;;;;8.30;7.50;;;12.40;99.90;;;;;;4992493;28;20231;-68
2021/08/28 03:36:36;;;;;;;11.02;9.30;;;12.30;99.90;;;;;;4979680;28;20320;-68
2021/08/28 03:39:05;;;;;;;10.90;7.95;;;12.40;99.90;;;;;;4988710;28;20204;-68
2021/08/28 03:41:32;;;;;;;15.02;8.07;;;12.60;99.90;;;;;;4990206;28;20204;-68
2021/08/28 03:43:59;;;;;;;13.25;8.60;;;12.80;99.90;;;;;;4994268;28;20201;-68
2021/08/28 03:46:27;;;;;;;10.52;7.68;;;12.90;99.90;;;;;;4992957;28;20213;-68
2021/08/28 03:48:54;;;;;;;7.05;6.35;;;13.00;99.90;;;;;;4991118;28;20345;-69
2021/08/28 03:51:21;;;;;;;9.88;7.63;;;13.00;99.90;;;;;;4987836;28;20253;-68
2021/08/28 03:53:48;;;;;;;9.98;8.73;;;12.90;99.90;;;;;;4992448;28;20248;-68
2021/08/28 03:56:15;;;;;;;8.43;7.65;;;12.60;99.90;;;;;;4982492;28;20240;-67
2021/08/28 03:58:42;;;;;;;14.05;7.72;;;12.70;99.90;;;;;;4988650;28;20317;-69
2021/08/28 04:01:09;;;;;;;8.60;7.80;;;12.80;99.90;;;;;;4990853;28;20247;-69
2021/08/28 04:03:36;;;;;;;10.25;6.47;;;12.80;99.90;;;;;;4985982;28;20606;-68
2021/08/28 04:06:03;;;;;;;9.02;5.68;;;12.90;99.90;;;;;;4987353;28;20201;-69
2021/08/28 04:08:30;;;;;;;8.82;6.15;;;13.00;99.90;;;;;;4989720;28;20203;-68
2021/08/28 04:10:57;;;;;;;7.88;7.15;;;12.70;99.90;;;;;;4983437;28;20204;-69
2021/08/28 04:13:24;;;;;;;10.57;6.68;;;12.70;99.90;;;;;;4990942;28;20339;-69
2021/08/28 04:15:51;;;;;;;7.57;6.88;;;12.70;99.90;;;;;;4999012;28;20356;-69
2021/08/28 04:18:18;;;;;;;21.20;7.15;;;12.80;99.90;;;;;;5000614;28;20224;-68
2021/08/28 04:20:45;;;;;;;10.95;7.10;;;13.00;99.90;;;;;;4994049;28;20424;-69
2021/08/28 04:23:12;;;;;;;8.85;6.63;;;13.20;99.90;;;;;;4979671;28;20205;-68
2021/08/28 04:25:39;;;;;;;8.55;6.10;;;13.10;99.90;;;;;;4989915;28;20788;-68
2021/08/28 04:28:06;;;;;;;7.63;6.18;;;13.20;99.90;;;;;;4984344;28;20361;-69
2021/08/28 04:30:34;;;;;;;7.65;6.07;;;13.40;99.90;;;;;;4994631;28;20209;-69
2021/08/28 04:33:02;;;;;;;7.90;7.20;;;13.50;99.90;;;;;;4978900;28;20201;-68
2021/08/28 04:35:29;;;;;;;8.30;6.70;;;13.70;99.90;;;;;;4989275;28;20225;-68
2021/08/28 04:37:56;;;;;;;7.22;6.55;;;13.80;99.90;;;;;;4982055;28;20217;-68
2021/08/28 04:40:23;;;;;;;6.80;5.82;;;14.00;99.90;;;;;;4995300;28;20215;-68
2021/08/28 04:42:52;;;;;;;10.90;6.72;;;14.00;99.90;;;;;;4991903;28;20201;-68
2021/08/28 04:45:19;;;;;;;6.25;5.22;;;14.00;99.90;;;;;;4986369;28;20267;-68
2021/08/28 04:47:46;;;;;;;5.80;4.88;;;14.10;99.90;;;;;;4993517;28;20212;-68
2021/08/28 04:50:13;;;;;;;6.10;5.50;;;14.20;99.90;;;;;;4984660;28;20248;-69
2021/08/28 04:52:40;;;;;;;6.38;5.07;;;14.20;99.90;;;;;;4983253;28;20206;-69
2021/08/28 04:55:08;;;;;;;6.72;5.53;;;14.30;99.90;;;;;;4982549;28;20232;-70
2021/08/28 04:57:35;;;;;;;5.88;5.15;;;14.30;99.90;;;;;;4995231;28;20590;-68
2021/08/28 05:00:03;;;;;;;6.55;4.50;;;14.30;99.90;;;;;;4992829;28;20204;-68
2021/08/28 05:02:30;;;;;;;7.30;5.13;;;14.40;99.90;;;;;;4986347;28;20208;-67
2021/08/28 05:04:57;;;;;;;12.57;5.80;;;14.70;99.90;;;;;;4990884;28;20388;-68
2021/08/28 05:07:24;;;;;;;5.80;5.10;;;14.70;99.90;;;;;;4993317;28;20258;-68
2021/08/28 05:09:51;;;;;;;8.30;6.05;;;14.80;99.90;;;;;;4985494;28;20203;-68
2021/08/28 05:12:19;;;;;;;9.20;6.55;;;14.90;99.90;;;;;;4990403;28;20198;-68
2021/08/28 05:14:46;;;;;;;13.57;5.90;;;14.90;99.90;;;;;;4994677;28;20245;-68
2021/08/28 05:17:13;;;;;;;7.70;5.60;;;14.80;99.90;;;;;;4996864;28;20513;-69
2021/08/28 05:19:40;;;;;;;12.32;6.50;;;14.90;99.90;;;;;;4995356;28;20488;-69
2021/08/28 05:22:07;;;;;;;8.02;5.30;;;15.10;99.90;;;;;;4993218;28;20274;-69
2021/08/28 05:24:36;;;;;;;8.38;5.70;;;14.80;99.90;;;;;;4992888;28;20407;-68
2021/08/28 05:27:03;;;;;;;6.45;5.57;;;15.00;99.90;;;;;;4994879;28;20229;-68
2021/08/28 05:29:30;;;;;;;7.38;6.70;;;15.20;99.90;;;;;;4991791;28;20206;-69
2021/08/28 05:31:57;;;;;;;6.88;5.10;;;15.20;99.90;;;;;;4978355;28;20284;-69
2021/08/28 05:34:24;;;;;;;9.15;7.30;;;14.90;99.90;;;;;;4988879;28;20258;-68
2021/08/28 05:36:51;;;;;;;6.38;5.78;;;14.70;99.90;;;;;;4993608;28;20233;-68
2021/08/28 05:39:18;;;;;;;8.50;5.28;;;14.90;99.90;;;;;;4980523;28;20202;-68
2021/08/28 05:41:45;;;;;;;8.00;5.53;;;15.10;99.90;;;;;;4989450;28;20281;-68
2021/08/28 05:44:12;;;;;;;7.22;6.38;;;15.10;99.90;;;;;;4990930;28;20242;-67
2021/08/28 05:46:40;;;;;;;5.80;5.18;;;15.10;99.90;;;;;;4990683;28;20201;-68
2021/08/28 05:49:07;;;;;;;5.63;5.13;;;15.20;99.90;;;;;;4991262;28;20586;-67
2021/08/28 05:51:34;;;;;;;7.18;6.47;;;15.50;99.90;;;;;;4988319;28;20261;-67
2021/08/28 05:54:01;;;;;;;6.80;5.65;;;15.80;99.90;;;;;;4994592;28;20252;-68
2021/08/28 05:56:28;;;;;;;5.20;4.70;;;16.00;99.90;;;;;;4981876;28;20207;-68
2021/08/28 05:58:55;;;;;;;6.28;5.68;;;16.60;99.90;;;;;;4986540;28;20270;-69
2021/08/28 06:01:22;;;;;;;5.80;5.20;;;16.90;99.90;;;;;;4986868;28;20249;-68
2021/08/28 06:03:49;;;;;;;6.37;5.77;;;17.30;99.90;;;;;;4991344;28;20452;-69
2021/08/28 06:06:16;;;;;;;5.47;4.17;;;17.70;99.90;;;;;;4992396;28;20511;-69
2021/08/28 06:08:43;;;;;;;6.10;5.50;;;18.00;99.90;;;;;;4994419;28;20507;-68
2021/08/28 06:11:10;;;;;;;5.50;4.70;;;18.20;99.90;;;;;;4996536;28;20438;-68
2021/08/28 06:13:38;;;;;;;5.50;5.00;;;18.20;99.90;;;;;;4993092;28;20505;-68
2021/08/28 06:16:05;;;;;;;6.60;6.00;;;18.00;99.90;;;;;;4977747;28;20450;-69
2021/08/28 06:18:33;;;;;;;5.60;5.10;;;18.20;99.90;;;;;;4990615;28;20482;-68
2021/08/28 06:21:02;;;;;;;6.90;5.37;;;18.30;99.90;;;;;;4995045;28;20446;-68
2021/08/28 06:23:30;;;;;;;6.57;5.40;;;18.40;99.90;;;;;;4992085;28;20437;-68
2021/08/28 06:25:57;;;;;;;6.93;5.30;;;18.30;99.90;;;;;;4993692;28;20409;-68
2021/08/28 06:28:24;;;;;;;9.40;5.80;;;18.40;99.90;;;;;;4991255;28;20434;-68
2021/08/28 06:30:51;;;;;;;6.93;4.40;;;18.60;99.90;;;;;;4987040;28;20740;-68
2021/08/28 06:33:18;;;;;;;5.60;4.97;;;18.80;99.90;;;;;;4985838;28;20809;-68
2021/08/28 06:35:45;;;;;;;4.70;4.30;;;19.00;99.90;;;;;;4985077;28;20805;-67
2021/08/28 06:38:12;;;;;;;5.50;5.00;;;19.20;99.90;;;;;;4983641;28;20478;-69
2021/08/28 06:40:39;;;;;;;5.87;5.27;;;19.00;99.90;;;;;;4985048;28;20447;-69
2021/08/28 06:43:06;;;;;;;5.50;5.10;;;18.70;99.90;;;;;;4987541;28;20443;-68
2021/08/28 06:45:33;;;;;;;6.77;5.10;;;18.40;99.90;;;;;;4987855;28;20662;-69
2021/08/28 06:48:00;;;;;;;4.40;4.00;;;18.00;99.90;;;;;;4977839;28;20447;-69
2021/08/28 06:50:27;;;;;;;5.57;5.10;;;18.30;99.90;;;;;;4993777;28;20441;-68
2021/08/28 06:52:54;;;;;;;5.17;4.70;;;18.60;99.90;;;;;;4983935;28;20447;-68
2021/08/28 06:55:21;;;;;;;6.77;5.97;;;18.40;99.90;;;;;;4983697;28;20760;-69
2021/08/28 06:57:48;;;;;;;5.40;4.90;;;18.40;99.90;;;;;;4980897;28;20495;-70
2021/08/28 07:00:15;;;;;;;6.93;5.53;;;18.50;99.90;;;;;;4984160;28;20763;-69
2021/08/28 07:02:44;;;;;;;6.83;5.93;;;18.60;99.90;;;;;;4995655;28;20523;-68
2021/08/28 07:05:11;;;;;;;7.10;6.40;;;18.60;99.90;;;;;;4995100;28;20425;-69
2021/08/28 07:07:38;;;;;;;8.23;5.77;;;18.60;99.90;;;;;;4994211;28;20425;-68
2021/08/28 07:10:08;;;;;;;11.93;6.37;;;18.20;99.90;;;;;;4994635;28;20414;-68
2021/08/28 07:12:37;;;;;;;9.03;6.70;;;17.60;99.90;;;;;;4983242;28;20442;-68
2021/08/28 07:15:05;;;;;;;6.70;6.20;;;17.60;99.90;;;;;;4982378;28;20515;-68
2021/08/28 07:17:32;;;;;;;7.00;6.40;;;17.80;99.90;;;;;;4991474;28;20524;-68
2021/08/28 07:19:59;;;;;;;6.17;5.67;;;18.30;99.90;;;;;;4992899;28;20421;-68
2021/08/28 07:22:26;;;;;;;8.13;6.40;;;18.50;99.90;;;;;;4988499;28;20477;-68
2021/08/28 07:24:53;;;;;;;12.80;6.90;;;18.70;99.90;;;;;;4983720;28;20465;-69
2021/08/28 07:27:23;;;;;;;8.63;6.37;;;19.00;99.90;;;;;;4990329;28;20425;-68
2021/08/28 07:29:50;;;;;;;7.70;6.27;;;18.70;99.90;;;;;;4981890;28;20429;-67
2021/08/28 07:32:18;;;;;;;8.03;5.50;;;18.60;99.90;;;;;;4990542;28;20456;-70
2021/08/28 07:34:46;;;;;;;9.93;7.17;;;18.70;99.90;;;;;;4987724;28;20429;-69
2021/08/28 07:37:13;;;;;;;6.83;6.13;;;18.80;99.90;;;;;;4981962;28;20437;-69
2021/08/28 07:39:40;;;;;;;7.27;6.63;;;19.30;99.90;;;;;;4989770;28;20442;-69
2021/08/28 07:42:07;;;;;;;8.17;7.13;;;19.40;99.90;;;;;;4977345;28;20467;-68
2021/08/28 07:44:34;;;;;;;9.00;7.37;;;19.70;99.90;;;;;;4976965;28;20443;-68
2021/08/28 07:47:01;;;;;;;8.17;6.47;;;19.90;99.90;;;;;;4976995;28;20692;-68
2021/08/28 07:49:28;;;;;;;7.43;6.83;;;19.90;99.90;;;;;;4977274;28;20446;-68
2021/08/28 07:51:55;;;;;;;11.03;6.30;;;19.50;99.90;;;;;;4977892;28;20477;-67
2021/08/28 07:54:22;;;;;;;7.70;6.90;;;19.60;99.90;;;;;;4976543;28;20581;-68
2021/08/28 07:56:49;;;;;;;10.13;6.50;;;19.60;99.90;;;;;;4976720;28;20774;-68
2021/08/28 07:59:16;;;;;;;8.83;6.77;;;19.50;99.90;;;;;;4976294;28;20746;-68
2021/08/28 08:01:43;;;;;;;6.10;5.60;;;20.00;99.90;;;;;;4976612;28;20609;-68
2021/08/28 08:04:11;;;;;;;7.20;6.60;;;20.30;99.90;;;;;;4980081;28;20458;-68
2021/08/28 08:06:38;;;;;;;6.93;6.23;;;20.20;99.90;;;;;;4979953;28;20406;-68
2021/08/28 08:09:05;;;;;;;6.90;5.47;;;20.10;99.90;;;;;;4990367;28;20434;-69
2021/08/28 08:11:32;;;;;;;6.17;5.67;;;19.80;99.90;;;;;;4991676;28;20529;-69
2021/08/28 08:13:59;;;;;;;7.40;6.70;;;20.30;99.90;;;;;;4993876;28;20479;-69
2021/08/28 08:16:26;;;;;;;5.70;5.20;;;20.10;99.90;;;;;;4996111;28;20406;-68
2021/08/28 08:18:54;;;;;;;6.17;5.67;;;20.90;99.90;;;;;;4991442;28;20479;-69
2021/08/28 08:21:21;;;;;;;6.67;5.53;;;21.90;99.90;;;;;;4995710;28;20415;-69
2021/08/28 08:23:48;;;;;;;5.60;5.07;;;22.70;99.90;;;;;;4995634;28;20435;-68
2021/08/28 08:26:15;;;;;;;5.80;5.40;;;22.90;99.90;;;;;;4993941;28;20436;-69
2021/08/28 08:28:43;;;;;;;5.97;5.37;;;22.50;99.90;;;;;;4994910;28;20444;-68
2021/08/28 08:31:10;;;;;;;5.20;4.70;;;22.00;99.90;;;;;;4993992;28;20411;-69
2021/08/28 08:33:38;;;;;;;4.93;4.63;;;22.10;99.90;;;;;;4996505;28;20437;-69
2021/08/28 08:36:05;;;;;;;4.40;4.20;;;22.40;99.90;;;;;;4994830;28;20456;-69
2021/08/28 08:38:32;;;;;;;5.30;5.00;;;22.10;99.90;;;;;;4986626;28;20482;-69
2021/08/28 08:41:00;;;;;;;6.63;5.27;;;23.40;99.90;;;;;;4992206;28;20421;-68
2021/08/28 08:43:28;;;;;;;6.73;5.47;;;24.10;99.90;;;;;;4992596;28;20459;-69
2021/08/28 08:45:55;;;;;;;5.93;4.73;;;25.00;99.90;;;;;;4993598;28;20560;-69
2021/08/28 08:48:23;;;;;;;9.33;6.80;;;25.30;99.90;;;;;;4989610;28;20440;-68
2021/08/28 08:50:51;;;;;;;5.40;4.90;;;26.10;99.90;;;;;;4989700;28;20450;-69
2021/08/28 08:53:24;;;;;;;7.07;6.57;;;26.60;99.20;;;;;;4989955;28;20418;-69
2021/08/28 08:55:52;;;;;;;6.37;5.87;;;27.00;98.60;;;;;;4978351;28;20415;-70
2021/08/28 08:58:20;;;;;;;5.90;5.60;;;26.90;97.80;;;;;;4977856;28;20530;-69
2021/08/28 09:00:47;;;;;;;6.13;5.83;;;27.10;96.50;;;;;;4978772;28;20415;-70
2021/08/28 09:03:19;;;;;;;6.33;5.73;;;26.40;97.30;;;;;;4977754;28;20771;-70
2021/08/28 09:05:47;;;;;;;6.37;5.97;;;26.20;98.10;;;;;;4987583;28;20449;-70
2021/08/28 09:08:15;;;;;;;5.03;4.73;;;25.80;97.30;;;;;;4992996;28;20440;-69
2021/08/28 09:10:42;;;;;;;5.80;5.50;;;25.00;97.40;;;;;;4996705;28;20809;-69
2021/08/28 09:13:17;;;;;;;5.57;5.27;;;24.40;98.50;;;;;;4997143;28;20469;-69
2021/08/28 09:15:58;;;;;;;4.50;4.20;;;24.40;99.50;;;;;;4982378;28;20749;-69
2021/08/28 09:18:50;;;;;;;5.03;4.73;;;24.40;99.90;;;;;;4982120;28;20488;-68
2021/08/28 09:21:21;;;;;;;5.53;5.13;;;23.90;99.20;;;;;;4984820;28;20637;-69
2021/08/28 09:23:48;;;;;;;6.10;5.60;;;24.00;99.90;;;;;;4997305;28;20446;-70
2021/08/28 09:26:35;;;;;;;5.60;5.20;;;22.90;99.90;;;;;;4997301;28;20500;-69
2021/08/28 09:29:04;;;;;;;5.53;5.10;;;22.80;99.90;;;;;;4983235;28;20446;-71
2021/08/28 09:31:54;;;;;;;5.50;5.13;;;22.60;99.90;;;;;;4996914;28;20795;-70
2021/08/28 09:34:25;;;;;;;7.53;5.30;;;22.80;99.90;;;;;;4982784;28;20452;-70
2021/08/28 09:37:04;;;;;;;5.90;5.40;;;23.30;99.90;;;;;;4997628;28;20466;-70
2021/08/28 09:39:47;;;;;;;5.60;5.20;;;23.70;99.90;;;;;;4996673;28;20442;-69
2021/08/28 09:42:20;;;;;;;5.20;4.80;;;24.10;99.90;;;;;;4996860;28;20532;-69
2021/08/28 09:44:48;;;;;;;5.40;4.63;;;24.20;99.90;;;;;;4995098;28;20487;-69
2021/08/28 09:47:22;;;;;;;6.17;5.57;;;24.60;99.80;;;;;;4994877;28;20440;-68
2021/08/28 09:49:52;;;;;;;6.00;5.40;;;25.40;99.30;;;;;;4992776;28;20528;-69
2021/08/28 09:52:22;;;;;;;5.87;5.33;;;26.00;97.60;;;;;;4994657;28;20754;-69
2021/08/28 09:54:50;;;;;;;5.20;4.90;;;25.90;97.50;;;;;;4980632;28;20437;-70
2021/08/28 09:57:17;;;;;;;4.77;4.53;;;25.10;98.30;;;;;;4986048;28;20411;-71
2021/08/28 09:59:45;;;;;;;4.80;4.50;;;23.80;98.50;;;;;;4989476;28;20501;-70
2021/08/28 10:02:15;;;;;;;5.60;5.30;;;22.30;99.80;;;;;;4994220;28;20442;-70
2021/08/28 10:04:56;;;;;;;3.90;3.70;;;22.00;99.90;;;;;;4980824;28;20475;-69
2021/08/28 10:07:28;;;;;;;4.10;3.90;;;21.80;99.90;;;;;;4991988;28;20534;-71
2021/08/28 10:10:00;;;;;;;5.30;4.37;;;21.80;99.90;;;;;;4996310;28;20439;-70
2021/08/28 10:12:32;;;;;;;3.60;3.40;;;22.30;99.70;;;;;;4982933;28;20451;-69
2021/08/28 10:15:00;;;;;;;4.47;4.20;;;22.40;99.80;;;;;;4995012;28;20443;-69
2021/08/28 10:17:29;;;;;;;4.23;4.03;;;22.90;99.40;;;;;;4990480;28;21115;-70
2021/08/28 10:19:56;;;;;;;4.20;4.00;;;23.50;98.70;;;;;;4977086;28;20697;-71
2021/08/28 10:22:26;;;;;;;4.10;3.90;;;23.70;98.40;;;;;;4993039;28;20418;-69
2021/08/28 10:24:58;;;;;;;5.53;5.23;;;23.30;97.80;;;;;;4985980;28;20417;-69
2021/08/28 10:27:26;;;;;;;3.90;3.67;;;22.80;99.00;;;;;;4989717;28;20411;-70
2021/08/28 10:29:54;;;;;;;4.53;4.30;;;22.70;99.60;;;;;;4985472;28;20442;-69
2021/08/28 10:32:22;;;;;;;4.20;3.90;;;23.20;99.20;;;;;;4994048;28;20448;-70
2021/08/28 10:34:50;;;;;;;4.20;4.00;;;23.50;98.40;;;;;;4975687;28;20418;-71
2021/08/28 10:37:18;;;;;;;3.50;3.40;;;23.80;97.60;;;;;;4980632;28;20522;-70
2021/08/28 10:39:51;;;;;;;4.20;3.90;;;24.00;95.90;;;;;;4996138;28;20731;-70
2021/08/28 10:42:19;;;;;;;4.10;3.90;;;24.00;96.40;;;;;;4995596;28;20439;-69
2021/08/28 10:44:51;;;;;;;4.90;4.70;;;24.10;95.80;;;;;;4980100;28;20434;-71
2021/08/28 10:47:28;;;;;;;4.20;4.00;;;24.20;95.90;;;;;;4992647;28;20468;-70
2021/08/28 10:49:59;;;;;;;5.10;4.70;;;24.00;97.30;;;;;;4987916;28;20483;-70
2021/08/28 10:52:27;;;;;;;4.13;3.93;;;23.60;96.70;;;;;;4987378;28;20413;-69
2021/08/28 10:54:56;;;;;;;3.30;3.20;;;23.00;97.40;;;;;;4991551;28;20420;-69
2021/08/28 10:57:30;;;;;;;4.00;3.87;;;22.60;98.10;;;;;;4984122;28;20443;-70
2021/08/28 11:00:12;;;;;;;3.80;3.60;;;22.10;97.80;;;;;;4975491;28;20485;-71
2021/08/28 11:02:55;;;;;;;4.17;3.77;;;21.80;98.40;;;;;;4987357;28;20460;-69
2021/08/28 11:05:26;;;;;;;3.73;3.53;;;21.90;97.90;;;;;;4993438;28;20449;-69
2021/08/28 11:07:58;;;;;;;4.23;3.30;;;22.00;99.50;;;;;;4992533;28;20796;-70
2021/08/28 11:10:27;;;;;;;3.23;3.13;;;22.20;98.80;;;;;;4991909;28;20457;-69
2021/08/28 11:13:04;;;;;;;3.60;3.40;;;22.70;98.50;;;;;;4981755;28;20786;-69
2021/08/28 11:15:34;;;;;;;3.77;3.47;;;22.60;98.80;;;;;;4978154;28;20503;-69
2021/08/28 11:18:04;;;;;;;3.73;3.53;;;22.50;98.00;;;;;;4984790;28;20439;-70
2021/08/28 11:20:39;;;;;;;4.00;3.83;;;22.60;99.00;;;;;;4992825;28;20500;-69
2021/08/28 11:23:20;;;;;;;3.50;3.37;;;22.60;98.90;;;;;;4986685;28;20487;-69
2021/08/28 11:25:57;;;;;;;4.20;3.90;;;21.90;99.70;;;;;;4987677;28;20785;-69
2021/08/28 11:28:42;;;;;;;4.40;4.20;;;21.30;99.90;;;;;;4976008;28;20452;-69
2021/08/28 11:31:10;;;;;;;4.43;4.10;;;21.50;99.90;;;;;;4994892;28;20437;-68
2021/08/28 11:33:38;;;;;;;3.90;3.70;;;22.00;99.90;;;;;;4984114;28;20434;-70
2021/08/28 11:36:06;;;;;;;4.03;3.73;;;22.60;99.80;;;;;;4989726;28;20433;-69
2021/08/28 11:38:38;;;;;;;4.17;3.97;;;22.90;99.50;;;;;;4978770;28;20456;-69
2021/08/28 11:41:12;;;;;;;3.57;3.47;;;23.00;99.10;;;;;;4981261;28;20719;-70
2021/08/28 11:43:42;;;;;;;4.20;4.00;;;23.10;99.20;;;;;;4988931;28;20484;-69
2021/08/28 11:46:14;;;;;;;4.30;4.10;;;22.80;98.60;;;;;;4991212;28;20412;-69
2021/08/28 11:48:44;;;;;;;4.73;4.40;;;22.60;99.40;;;;;;4987922;28;20693;-70
2021/08/28 11:51:18;;;;;;;4.50;4.20;;;22.70;99.20;;;;;;4982932;28;20442;-69
2021/08/28 11:53:49;;;;;;;4.90;4.50;;;22.90;99.10;;;;;;4986848;28;20411;-69
2021/08/28 11:56:18;;;;;;;5.27;4.93;;;22.60;99.10;;;;;;4994239;28;20739;-69
2021/08/28 11:58:55;;;;;;;4.40;4.07;;;22.10;99.90;;;;;;4985425;28;20451;-69
2021/08/28 12:01:36;;;;;;;4.00;3.80;;;22.10;99.80;;;;;;4993174;28;20733;-69
2021/08/28 12:04:18;;;;;;;4.53;4.33;;;22.10;99.90;;;;;;4979489;28;20493;-69
2021/08/28 12:06:53;;;;;;;3.97;3.77;;;22.00;99.90;;;;;;4990205;28;20425;-68
2021/08/28 12:09:22;;;;;;;3.60;3.40;;;22.00;99.90;;;;;;4997795;28;20415;-70
2021/08/28 12:11:51;;;;;;;4.00;3.80;;;22.10;99.40;;;;;;4983259;28;20739;-68
2021/08/28 12:14:20;;;;;;;3.70;3.50;;;21.70;99.90;;;;;;4990541;28;20443;-69
2021/08/28 12:16:48;;;;;;;4.30;4.00;;;21.20;99.90;;;;;;4984410;28;20705;-69
2021/08/28 12:19:20;;;;;;;4.13;3.93;;;21.60;99.90;;;;;;4997019;28;20531;-70
2021/08/28 12:22:00;;;;;;;9.10;4.30;;;21.90;99.90;;;;;;4990568;28;20420;-70
2021/08/28 12:24:32;;;;;;;4.87;4.47;;;22.60;99.50;;;;;;4991548;28;20418;-69
2021/08/28 12:27:05;;;;;;;3.87;3.30;;;22.60;98.80;;;;;;4996239;28;20484;-69
2021/08/28 12:29:35;;;;;;;3.67;3.47;;;22.50;98.90;;;;;;4990233;28;20437;-69
2021/08/28 12:32:16;;;;;;;4.10;3.90;;;22.30;98.80;;;;;;4996044;28;20445;-70
2021/08/28 12:34:50;;;;;;;4.07;3.87;;;22.40;99.00;;;;;;5006742;28;20405;-70
2021/08/28 12:37:19;;;;;;;3.97;3.73;;;22.70;98.40;;;;;;4997086;28;20660;-69
2021/08/28 12:39:53;;;;;;;3.93;3.73;;;22.90;98.80;;;;;;4994882;28;20800;-69
2021/08/28 12:42:23;;;;;;;3.97;3.80;;;23.40;97.50;;;;;;4996958;28;20782;-69
2021/08/28 12:45:01;;;;;;;3.97;3.77;;;23.50;97.10;;;;;;4994250;28;20515;-70
2021/08/28 12:47:31;;;;;;;4.93;4.53;;;23.20;98.00;;;;;;4996625;28;20497;-70
2021/08/28 12:49:58;;;;;;;3.60;3.50;;;22.90;97.50;;;;;;4992936;28;20458;-69
2021/08/28 12:52:43;;;;;;;4.40;4.20;;;22.90;98.00;;;;;;4994325;28;20442;-69
2021/08/28 12:55:28;;;;;;;4.27;3.90;;;22.90;97.60;;;;;;4994500;28;20786;-70
2021/08/28 12:58:01;;;;;;;4.20;4.00;;;22.80;97.30;;;;;;4991104;28;20465;-69